Time;durP1;ratioP1;P1;durP2;ratioP2;P2;SDS_P1;SDS_P2;PMS_P1;PMS_P2;Temp;Humidity;BMP_temperature;BMP_pressure;BME280_temperature;BME280_humidity;BME280_pressure;Samples;Min_cycle;Max_cycle;Signal;HPM_P1;HPM_P2
2023/08/10 00:02:28;;;;;;;5.50;1.20;;;;;;;14.42;100.00;101036.13;5220883;28;20036;-75
2023/08/10 00:04:58;;;;;;;2.97;1.00;;;;;;;14.31;100.00;101033.16;5225550;28;20367;-75
2023/08/10 00:07:29;;;;;;;2.92;1.10;;;;;;;14.30;100.00;101033.19;5222061;28;20033;-75
2023/08/10 00:09:59;;;;;;;2.47;1.00;;;;;;;14.14;100.00;101040.00;5219998;28;20029;-74
2023/08/10 00:12:30;;;;;;;1.92;1.10;;;;;;;14.18;100.00;101029.31;5222696;28;20030;-75
2023/08/10 00:15:00;;;;;;;3.92;1.55;;;;;;;14.42;100.00;101035.31;5217535;28;20029;-75
2023/08/10 00:17:31;;;;;;;3.90;1.02;;;;;;;14.35;100.00;101031.22;5221760;28;20426;-75
2023/08/10 00:20:05;;;;;;;4.00;1.15;;;;;;;14.15;100.00;101025.94;5224759;28;20402;-75
2023/08/10 00:22:35;;;;;;;4.13;1.00;;;;;;;14.16;100.00;101030.31;5209700;28;20083;-75
2023/08/10 00:25:07;;;;;;;3.78;1.10;;;;;;;14.11;100.00;101038.34;5225374;28;20482;-75
2023/08/10 00:27:40;;;;;;;2.40;1.10;;;;;;;13.82;100.00;101038.72;5219422;28;20112;-75
2023/08/10 00:30:10;;;;;;;3.40;1.20;;;;;;;13.71;100.00;101042.72;5220473;28;20158;-74
2023/08/10 00:32:41;;;;;;;3.25;1.02;;;;;;;13.72;100.00;101041.81;5223245;28;20421;-75
2023/08/10 00:35:12;;;;;;;2.65;1.10;;;;;;;13.45;100.00;101043.78;5221579;28;20017;-71
2023/08/10 00:37:42;;;;;;;3.95;1.40;;;;;;;13.32;100.00;101046.91;5221691;28;20016;-72
2023/08/10 00:40:12;;;;;;;3.05;1.15;;;;;;;13.33;100.00;101040.75;5239271;22;20041;-71
2023/08/10 00:42:42;;;;;;;3.63;1.20;;;;;;;13.46;100.00;101041.97;5223949;28;20028;-72
2023/08/10 00:45:13;;;;;;;5.75;1.30;;;;;;;13.48;100.00;101025.25;5231685;28;20063;-72
2023/08/10 00:47:43;;;;;;;6.78;1.20;;;;;;;13.40;100.00;101029.09;5229389;28;20085;-72
2023/08/10 00:50:14;;;;;;;4.80;1.30;;;;;;;13.44;100.00;101023.66;5202723;28;20047;-72
2023/08/10 00:52:45;;;;;;;3.22;1.30;;;;;;;13.44;100.00;101025.44;5219460;28;20032;-72
2023/08/10 00:55:15;;;;;;;3.92;1.27;;;;;;;13.54;100.00;101037.28;5217354;28;20087;-72
2023/08/10 00:57:45;;;;;;;3.65;1.13;;;;;;;13.58;100.00;101044.13;5216811;28;20032;-72
2023/08/10 01:00:16;;;;;;;2.72;1.15;;;;;;;13.38;100.00;101042.28;5214869;28;20028;-72
2023/08/10 01:02:46;;;;;;;1.92;1.00;;;;;;;13.35;100.00;101041.53;5218222;28;20033;-73
2023/08/10 01:05:16;;;;;;;2.38;1.17;;;;;;;13.27;100.00;101039.22;5218025;28;20021;-71
2023/08/10 01:07:52;;;;;;;3.17;1.00;;;;;;;13.22;100.00;101040.34;5218421;28;20108;-72
2023/08/10 01:10:37;;;;;;;4.97;1.77;;;;;;;13.30;100.00;101041.75;5190752;28;20079;-72
2023/08/10 01:13:25;;;;;;;2.80;1.27;;;;;;;13.02;100.00;101048.09;5216418;28;20044;-73
2023/08/10 01:16:00;;;;;;;3.33;1.13;;;;;;;13.11;100.00;101056.50;5206800;28;20036;-72
2023/08/10 01:18:32;;;;;;;3.50;1.30;;;;;;;13.34;100.00;101051.22;5215887;28;20556;-72
2023/08/10 01:21:15;;;;;;;4.47;0.95;;;;;;;13.22;100.00;101049.03;5198350;28;20029;-72
2023/08/10 01:23:48;;;;;;;3.25;1.25;;;;;;;13.19;100.00;101053.53;5219396;28;20025;-72
2023/08/10 01:26:19;;;;;;;3.20;0.98;;;;;;;13.12;100.00;101059.97;5219231;28;20625;-72
2023/08/10 01:28:50;;;;;;;4.60;1.23;;;;;;;12.93;100.00;101056.31;5199689;28;20155;-72
2023/08/10 01:31:20;;;;;;;2.13;1.13;;;;;;;12.83;100.00;101061.94;5210001;28;20028;-72
2023/08/10 01:33:50;;;;;;;5.47;1.10;;;;;;;12.74;100.00;101059.63;5215627;28;20036;-72
2023/08/10 01:36:21;;;;;;;3.65;1.30;;;;;;;12.90;100.00;101059.88;5218756;28;20025;-72
2023/08/10 01:38:51;;;;;;;1.85;1.25;;;;;;;12.92;100.00;101067.69;5213960;28;20036;-72
2023/08/10 01:41:21;;;;;;;2.25;0.93;;;;;;;12.76;100.00;101066.56;5218394;28;20500;-72
2023/08/10 01:43:52;;;;;;;2.90;1.05;;;;;;;12.81;100.00;101059.34;5219432;28;20036;-72
2023/08/10 01:46:24;;;;;;;3.65;1.00;;;;;;;12.82;100.00;101061.06;5219641;28;20104;-72
2023/08/10 01:48:57;;;;;;;4.00;1.40;;;;;;;12.74;100.00;101060.50;5215742;28;20025;-72
2023/08/10 01:51:28;;;;;;;2.58;1.10;;;;;;;12.57;100.00;101065.50;5219909;28;20458;-72
2023/08/10 01:54:03;;;;;;;2.58;1.25;;;;;;;12.74;100.00;101068.38;5220180;28;20104;-72
2023/08/10 01:56:33;;;;;;;2.55;1.20;;;;;;;12.74;100.00;101064.88;5218390;28;20610;-72
2023/08/10 01:59:04;;;;;;;2.40;1.15;;;;;;;12.54;100.00;101068.25;5213164;28;20350;-72
2023/08/10 02:01:34;;;;;;;4.97;1.23;;;;;;;12.51;100.00;101067.50;5220574;28;20055;-72
2023/08/10 02:04:05;;;;;;;3.42;1.20;;;;;;;12.19;100.00;101071.25;5218057;28;20035;-72
2023/08/10 02:06:40;;;;;;;3.95;1.20;;;;;;;12.21;100.00;101066.81;5219503;28;20020;-72
2023/08/10 02:09:11;;;;;;;3.60;1.30;;;;;;;12.19;100.00;101062.50;5218812;28;20166;-73
2023/08/10 02:11:41;;;;;;;2.05;1.00;;;;;;;12.35;100.00;101069.81;5198335;28;20464;-72
2023/08/10 02:14:11;;;;;;;3.70;1.00;;;;;;;12.42;100.00;101071.28;5219360;28;20017;-73
2023/08/10 02:16:42;;;;;;;2.72;1.00;;;;;;;12.44;100.00;101066.84;5214645;28;20021;-72
2023/08/10 02:19:12;;;;;;;5.70;1.15;;;;;;;12.42;100.00;101071.28;5219274;28;20108;-72
2023/08/10 02:21:42;;;;;;;1.65;0.95;;;;;;;12.54;100.00;101076.13;5199105;28;20025;-72
2023/08/10 02:24:13;;;;;;;2.58;1.13;;;;;;;12.44;100.00;101077.34;5217412;28;20510;-72
2023/08/10 02:27:33;;;;;;;4.35;1.30;;;;;;;12.46;100.00;101072.03;5219166;28;20024;-72
2023/08/10 02:30:04;;;;;;;6.25;1.20;;;;;;;12.48;100.00;101076.31;5188151;28;20049;-71
2023/08/10 02:32:34;;;;;;;1.75;1.20;;;;;;;12.11;100.00;101091.59;5218934;28;20551;-72
2023/08/10 02:35:05;;;;;;;7.57;1.00;;;;;;;11.99;100.00;101086.75;5192403;28;20078;-72
2023/08/10 02:37:37;;;;;;;3.47;1.00;;;;;;;12.03;100.00;101083.16;5219449;28;20431;-72
2023/08/10 02:40:10;;;;;;;2.47;1.00;;;;;;;12.08;100.00;101083.84;5214397;28;20029;-72
2023/08/10 02:42:42;;;;;;;2.25;1.00;;;;;;;12.01;100.00;101089.34;5202627;28;20031;-72
2023/08/10 02:45:13;;;;;;;4.80;1.50;;;;;;;12.08;100.00;101086.47;5218775;28;20021;-72
2023/08/10 02:47:43;;;;;;;2.00;1.25;;;;;;;12.41;100.00;101087.06;5213869;28;20055;-72
2023/08/10 02:50:14;;;;;;;3.58;1.40;;;;;;;12.32;100.00;101085.63;5215612;28;20098;-72
2023/08/10 02:52:44;;;;;;;1.35;1.00;;;;;;;12.41;100.00;101080.06;5215638;28;20025;-73
2023/08/10 02:55:17;;;;;;;2.80;1.40;;;;;;;12.20;100.00;101093.91;5214871;28;20017;-72
2023/08/10 02:57:47;;;;;;;4.72;1.40;;;;;;;12.15;100.00;101090.56;5200115;28;20127;-72
2023/08/10 03:00:17;;;;;;;2.83;1.25;;;;;;;11.97;100.00;101093.81;5217786;28;20021;-71
2023/08/10 03:02:50;;;;;;;3.53;1.20;;;;;;;12.14;100.00;101096.72;5217398;28;20167;-71
2023/08/10 03:05:20;;;;;;;3.97;1.40;;;;;;;12.29;100.00;101095.38;5214475;28;20021;-72
2023/08/10 03:07:51;;;;;;;3.05;1.23;;;;;;;12.43;100.00;101099.22;5213200;28;20071;-72
2023/08/10 03:10:21;;;;;;;3.30;1.30;;;;;;;12.40;100.00;101096.72;5210440;28;20025;-72
2023/08/10 03:12:51;;;;;;;3.35;1.23;;;;;;;12.54;100.00;101097.09;5218152;28;20024;-72
2023/08/10 03:15:22;;;;;;;2.97;1.23;;;;;;;12.65;100.00;101092.28;5220038;28;20017;-71
2023/08/10 03:17:52;;;;;;;3.38;1.23;;;;;;;12.70;100.00;101100.00;5219056;28;20025;-72
2023/08/10 03:20:22;;;;;;;2.65;1.40;;;;;;;12.68;100.00;101089.59;5214953;28;20492;-72
2023/08/10 03:22:53;;;;;;;2.45;1.10;;;;;;;12.47;100.00;101092.13;5198629;28;20052;-72
2023/08/10 03:25:23;;;;;;;1.83;0.90;;;;;;;12.51;100.00;101091.97;5217527;28;20028;-73
2023/08/10 03:27:53;;;;;;;3.20;1.20;;;;;;;12.31;100.00;101102.25;5213690;28;20079;-72
2023/08/10 03:30:23;;;;;;;4.80;1.30;;;;;;;11.93;100.00;101101.84;5218676;28;20051;-73
2023/08/10 03:32:54;;;;;;;2.58;1.20;;;;;;;11.88;100.00;101101.97;5218582;28;20056;-73
2023/08/10 03:35:24;;;;;;;3.97;1.50;;;;;;;11.82;100.00;101098.69;5218576;28;20025;-72
2023/08/10 03:37:54;;;;;;;3.40;1.20;;;;;;;11.76;100.00;101099.75;5213696;28;20113;-72
2023/08/10 03:40:25;;;;;;;4.00;1.50;;;;;;;11.77;100.00;101101.47;5218074;28;20402;-72
2023/08/10 03:42:55;;;;;;;5.40;1.45;;;;;;;11.94;100.00;101096.53;5216648;28;20021;-73
2023/08/10 03:45:25;;;;;;;3.72;1.20;;;;;;;11.92;100.00;101106.22;5216697;28;20026;-72
2023/08/10 03:47:56;;;;;;;3.22;1.38;;;;;;;11.91;100.00;101114.09;5211770;28;20029;-72
2023/08/10 03:50:26;;;;;;;2.15;1.20;;;;;;;11.69;100.00;101118.31;5195994;28;20033;-72
2023/08/10 03:52:57;;;;;;;2.22;1.20;;;;;;;11.77;100.00;101119.78;5217542;28;20040;-72
2023/08/10 03:55:27;;;;;;;2.70;1.27;;;;;;;11.93;100.00;101115.78;5218370;28;20086;-71
2023/08/10 03:57:57;;;;;;;1.75;1.00;;;;;;;12.07;100.00;101126.66;5188609;28;20512;-72
2023/08/10 04:00:28;;;;;;;2.85;1.17;;;;;;;11.98;100.00;101121.72;5213215;28;20055;-70
2023/08/10 04:02:58;;;;;;;2.50;1.45;;;;;;;11.98;100.00;101129.56;5212622;28;20024;-72
2023/08/10 04:05:28;;;;;;;3.08;1.20;;;;;;;12.09;100.00;101129.25;5218294;28;20059;-73
2023/08/10 04:07:58;;;;;;;2.40;1.20;;;;;;;12.04;100.00;101129.41;5199168;28;20302;-72
2023/08/10 04:10:29;;;;;;;2.25;1.20;;;;;;;12.09;100.00;101124.00;5218010;28;20055;-72
2023/08/10 04:12:59;;;;;;;1.90;1.08;;;;;;;11.92;100.00;101131.56;5216780;28;20078;-73
2023/08/10 04:15:30;;;;;;;5.10;1.50;;;;;;;12.04;100.00;101121.53;5204062;28;20470;-72
2023/08/10 04:18:01;;;;;;;2.47;1.08;;;;;;;12.24;100.00;101134.81;5210650;28;20033;-72
2023/08/10 04:20:32;;;;;;;4.65;1.52;;;;;;;12.35;100.00;101131.84;5203028;28;20017;-72
2023/08/10 04:23:02;;;;;;;3.13;1.00;;;;;;;12.23;100.00;101122.63;5215268;28;20032;-72
2023/08/10 04:25:32;;;;;;;3.08;1.00;;;;;;;12.32;100.00;101132.78;5197906;28;20385;-72
2023/08/10 04:28:03;;;;;;;2.00;1.00;;;;;;;12.60;100.00;101133.56;5211367;28;20052;-72
2023/08/10 04:30:33;;;;;;;1.63;1.08;;;;;;;12.59;100.00;101131.88;5215005;28;20446;-72
2023/08/10 04:33:04;;;;;;;1.80;1.00;;;;;;;12.89;100.00;101126.38;5222636;28;20029;-72
2023/08/10 04:35:34;;;;;;;3.80;0.98;;;;;;;12.86;100.00;101136.16;5218522;28;20029;-72
2023/08/10 04:38:04;;;;;;;1.67;0.90;;;;;;;12.96;100.00;101139.31;5215761;28;20021;-72
2023/08/10 04:40:35;;;;;;;3.50;0.93;;;;;;;13.07;100.00;101140.66;5215814;28;20060;-72
2023/08/10 04:43:05;;;;;;;1.52;0.93;;;;;;;13.16;100.00;101138.53;5217973;28;20127;-72
2023/08/10 04:45:35;;;;;;;2.30;1.30;;;;;;;13.43;100.00;101144.50;5211164;28;20051;-72
2023/08/10 04:48:07;;;;;;;3.53;1.10;;;;;;;13.10;100.00;101143.16;5215729;28;20052;-72
2023/08/10 04:50:37;;;;;;;3.67;1.17;;;;;;;13.45;100.00;101145.31;5215627;28;20028;-72
2023/08/10 04:53:07;;;;;;;3.42;1.27;;;;;;;13.44;100.00;101147.06;5214287;28;20030;-72
2023/08/10 04:55:38;;;;;;;3.35;1.23;;;;;;;13.91;100.00;101143.44;5218037;28;20032;-72
2023/08/10 04:58:08;;;;;;;2.50;1.17;;;;;;;14.89;100.00;101133.13;5218827;28;20382;-72
2023/08/10 05:00:38;;;;;;;3.60;1.05;;;;;;;15.83;100.00;101132.25;5216546;28;20078;-73
2023/08/10 05:03:09;;;;;;;1.58;0.90;;;;;;;16.55;96.48;101140.03;5200863;28;20546;-72
2023/08/10 05:05:40;;;;;;;3.97;1.13;;;;;;;16.04;96.46;101134.69;5216826;28;20029;-73
2023/08/10 05:08:10;;;;;;;5.15;1.50;;;;;;;15.34;99.80;101146.03;5217372;28;20029;-73
2023/08/10 05:10:44;;;;;;;4.65;1.20;;;;;;;15.25;100.00;101149.03;5218047;28;20116;-74
2023/08/10 05:13:15;;;;;;;5.47;1.30;;;;;;;17.17;93.84;101142.91;5201005;28;20029;-73
2023/08/10 05:15:45;;;;;;;4.35;1.20;;;;;;;16.62;96.62;101141.47;5213761;28;20750;-74
2023/08/10 05:18:16;;;;;;;3.05;1.25;;;;;;;18.04;90.25;101138.88;5209706;28;20029;-72
2023/08/10 05:20:46;;;;;;;6.75;1.23;;;;;;;19.45;88.88;101136.44;5218803;28;20025;-73
2023/08/10 05:23:17;;;;;;;4.45;1.25;;;;;;;21.66;77.47;101131.00;5204364;28;20032;-73
2023/08/10 05:25:47;;;;;;;3.20;1.50;;;;;;;20.68;75.03;101139.72;5201951;28;20053;-73
2023/08/10 05:28:17;;;;;;;2.30;1.45;;;;;;;20.31;78.07;101147.59;5233589;28;20547;-74
2023/08/10 05:30:48;;;;;;;2.30;1.10;;;;;;;17.99;86.88;101158.63;5204391;28;20386;-72
2023/08/10 05:33:18;;;;;;;2.05;1.30;;;;;;;17.15;94.66;101165.91;5221993;28;20056;-73
2023/08/10 05:35:49;;;;;;;3.65;1.25;;;;;;;16.74;98.71;101161.94;5202308;28;20483;-72
2023/08/10 05:38:19;;;;;;;2.15;1.20;;;;;;;16.15;100.00;101165.81;5218522;28;20040;-74
2023/08/10 05:40:49;;;;;;;5.32;1.70;;;;;;;16.20;100.00;101164.66;5219576;28;20108;-73
2023/08/10 05:43:19;;;;;;;7.40;1.70;;;;;;;15.84;100.00;101166.44;5222779;28;20025;-73
2023/08/10 05:45:50;;;;;;;5.28;1.48;;;;;;;15.58;100.00;101166.84;5201840;28;20366;-74
2023/08/10 05:48:20;;;;;;;4.15;1.70;;;;;;;15.68;100.00;101168.09;5219089;28;20017;-74
2023/08/10 05:50:50;;;;;;;5.55;1.80;;;;;;;15.73;100.00;101166.09;5214517;28;20021;-73
2023/08/10 05:53:21;;;;;;;4.57;1.80;;;;;;;15.88;100.00;101169.81;5218878;28;20136;-73
2023/08/10 05:55:51;;;;;;;4.00;1.58;;;;;;;15.92;100.00;101174.88;5222006;28;20021;-73
2023/08/10 05:58:21;;;;;;;5.07;2.17;;;;;;;16.08;100.00;101167.88;5205886;28;20115;-73
2023/08/10 06:00:52;;;;;;;4.15;1.65;;;;;;;17.33;100.00;101157.00;5218894;28;20025;-73
2023/08/10 06:03:22;;;;;;;4.50;1.40;;;;;;;17.12;96.48;101166.91;5201830;28;20375;-74
2023/08/10 06:05:52;;;;;;;2.97;1.52;;;;;;;16.92;98.71;101179.47;5201010;28;20025;-74
2023/08/10 06:08:23;;;;;;;2.95;1.45;;;;;;;16.72;100.00;101182.28;5223805;28;20093;-73
2023/08/10 06:10:53;;;;;;;3.45;1.60;;;;;;;16.22;100.00;101181.25;5198907;28;20029;-74
2023/08/10 06:13:24;;;;;;;4.37;1.60;;;;;;;16.16;100.00;101186.84;5201172;28;20040;-73
2023/08/10 06:15:54;;;;;;;6.68;1.65;;;;;;;16.05;100.00;101177.75;5215736;28;20268;-73
2023/08/10 06:18:24;;;;;;;3.60;1.77;;;;;;;15.90;100.00;101179.31;5201486;28;20036;-73
2023/08/10 06:20:55;;;;;;;7.13;2.28;;;;;;;15.91;100.00;101182.84;5218623;28;20828;-74
2023/08/10 06:23:25;;;;;;;3.95;1.80;;;;;;;16.04;100.00;101192.72;5198940;28;20025;-74
2023/08/10 06:25:55;;;;;;;3.20;1.55;;;;;;;18.26;96.64;101176.41;5201005;28;20112;-74
2023/08/10 06:28:26;;;;;;;5.82;1.65;;;;;;;19.15;88.32;101174.59;5220536;28;20048;-74
2023/08/10 06:30:56;;;;;;;3.60;1.53;;;;;;;20.04;83.55;101178.63;5219498;28;20028;-74
2023/08/10 06:33:26;;;;;;;4.10;1.40;;;;;;;20.40;82.74;101172.69;5220760;28;20754;-74
2023/08/10 06:35:57;;;;;;;5.00;1.40;;;;;;;22.07;77.05;101168.75;5220645;28;20187;-74
2023/08/10 06:38:27;;;;;;;3.60;1.33;;;;;;;20.90;79.72;101171.88;5220399;28;20040;-74
2023/08/10 06:40:57;;;;;;;5.80;1.40;;;;;;;21.15;79.75;101179.88;5216533;22;20514;-76
2023/08/10 06:43:28;;;;;;;3.67;1.00;;;;;;;22.01;76.69;101173.66;5193546;28;20414;-77
2023/08/10 06:45:59;;;;;;;4.97;1.13;;;;;;;20.02;79.07;101188.50;5197117;28;20337;-77
2023/08/10 06:48:30;;;;;;;4.43;1.30;;;;;;;19.30;81.61;101190.41;5197427;28;20025;-74
2023/08/10 06:51:00;;;;;;;3.75;1.20;;;;;;;19.57;82.26;101187.84;5193891;28;20114;-76
2023/08/10 06:53:33;;;;;;;3.13;1.17;;;;;;;19.46;84.89;101185.88;5195716;28;20475;-76
2023/08/10 06:56:05;;;;;;;3.88;1.27;;;;;;;18.93;85.81;101185.63;5198179;28;20029;-75
2023/08/10 06:58:36;;;;;;;6.55;1.38;;;;;;;18.96;86.82;101184.59;5193727;28;20041;-75
2023/08/10 07:01:06;;;;;;;3.78;1.20;;;;;;;18.78;86.75;101189.19;5196008;28;20383;-75
2023/08/10 07:03:36;;;;;;;6.10;1.40;;;;;;;18.98;85.16;101188.00;5194967;28;20299;-75
2023/08/10 07:06:07;;;;;;;5.07;1.40;;;;;;;19.90;81.56;101183.94;5194311;28;20414;-74
2023/08/10 07:08:37;;;;;;;5.22;1.30;;;;;;;19.47;83.78;101186.75;5191584;28;20021;-76
2023/08/10 07:11:07;;;;;;;4.75;1.40;;;;;;;19.09;81.38;101190.88;5193998;28;20188;-74
2023/08/10 07:13:38;;;;;;;7.22;1.10;;;;;;;18.53;82.09;101203.13;5196211;28;20505;-76
2023/08/10 07:16:08;;;;;;;4.97;1.75;;;;;;;18.17;86.88;101202.56;5197626;28;20486;-74
2023/08/10 07:18:38;;;;;;;3.90;1.20;;;;;;;18.23;86.81;101207.47;5194366;28;20036;-75
2023/08/10 07:21:09;;;;;;;5.82;1.30;;;;;;;17.95;87.55;101202.88;5191807;28;20818;-74
2023/08/10 07:23:39;;;;;;;4.68;1.15;;;;;;;19.83;83.95;101197.69;5193502;28;20029;-75
2023/08/10 07:26:10;;;;;;;4.57;1.55;;;;;;;22.13;74.76;101184.28;5194846;28;20033;-73
2023/08/10 07:28:40;;;;;;;5.00;1.42;;;;;;;22.67;69.94;101192.66;5194159;28;20036;-75
2023/08/10 07:31:11;;;;;;;4.80;1.70;;;;;;;20.96;73.16;101203.38;5195523;28;20390;-73
2023/08/10 07:33:42;;;;;;;6.47;1.48;;;;;;;19.95;77.93;101204.88;5191918;28;20296;-75
2023/08/10 07:36:12;;;;;;;5.97;1.25;;;;;;;19.04;79.58;101208.81;5192414;28;20041;-74
2023/08/10 07:38:43;;;;;;;5.15;1.00;;;;;;;19.41;76.85;101211.84;5194507;28;20029;-75
2023/08/10 07:41:13;;;;;;;4.93;1.23;;;;;;;19.37;77.78;101210.31;5197492;28;20044;-75
2023/08/10 07:43:43;;;;;;;5.78;1.27;;;;;;;18.87;79.37;101212.50;5196456;28;20765;-75
2023/08/10 07:46:14;;;;;;;6.10;1.40;;;;;;;19.08;79.35;101205.91;5194591;28;20514;-76
2023/08/10 07:48:45;;;;;;;4.93;1.27;;;;;;;19.21;78.54;101206.03;5192309;28;20060;-75
2023/08/10 07:51:16;;;;;;;4.40;1.05;;;;;;;20.01;78.30;101200.03;5192870;28;20655;-75
2023/08/10 07:53:46;;;;;;;7.27;1.37;;;;;;;21.16;71.92;101204.63;5191938;28;20032;-76
2023/08/10 07:56:16;;;;;;;5.03;1.23;;;;;;;20.39;72.04;101205.50;5194634;28;20646;-75
2023/08/10 07:58:47;;;;;;;2.67;1.02;;;;;;;20.25;71.69;101202.91;5193781;28;20278;-76
2023/08/10 08:01:17;;;;;;;6.03;1.33;;;;;;;20.53;75.77;101208.13;5195292;28;20303;-72
2023/08/10 08:03:47;;;;;;;3.17;1.13;;;;;;;23.37;66.31;101185.31;5190156;28;20280;-72
2023/08/10 08:06:18;;;;;;;4.47;1.20;;;;;;;24.40;63.68;101191.16;5192830;28;20117;-72
2023/08/10 08:08:48;;;;;;;5.30;1.40;;;;;;;25.22;60.95;101192.13;5196013;28;20427;-73
2023/08/10 08:11:18;;;;;;;4.10;1.10;;;;;;;;;;5193216;28;20322;-72
2023/08/10 08:13:48;;;;;;;3.83;1.17;;;;;;;27.37;54.29;101176.63;5191223;28;20030;-73
2023/08/10 08:16:18;;;;;;;7.27;1.60;;;;;;;27.11;58.47;101180.97;5195868;28;20029;-74
2023/08/10 08:18:53;;;;;;;5.90;1.10;;;;;;;29.21;54.19;101182.19;5190968;28;20277;-75
2023/08/10 08:21:28;;;;;;;3.10;1.02;;;;;;;31.03;48.43;101166.72;5191897;28;20038;-76
2023/08/10 08:23:59;;;;;;;3.63;1.13;;;;;;;29.12;53.33;101181.28;5194818;28;20037;-75
2023/08/10 08:26:32;;;;;;;6.55;1.23;;;;;;;28.38;53.88;101181.81;5194941;28;20033;-76
2023/08/10 08:29:02;;;;;;;2.97;0.88;;;;;;;27.75;53.80;101181.91;5193647;28;20029;-76
2023/08/10 08:31:33;;;;;;;3.17;0.90;;;;;;;25.91;59.74;101177.91;5190738;28;20479;-76
2023/08/10 08:34:03;;;;;;;2.47;0.80;;;;;;;26.70;59.32;101180.44;5191535;28;20025;-76
2023/08/10 08:36:34;;;;;;;5.28;0.95;;;;;;;25.28;59.25;101191.59;5188660;28;20038;-73
2023/08/10 08:39:04;;;;;;;4.93;1.00;;;;;;;25.61;60.74;101181.47;5184172;28;20160;-75
2023/08/10 08:41:38;;;;;;;4.93;1.10;;;;;;;28.98;56.38;101173.78;5187302;28;20916;-73
2023/08/10 08:44:08;;;;;;;4.18;1.17;;;;;;;27.41;55.55;101172.69;5187073;28;20180;-72
2023/08/10 08:46:40;;;;;;;3.00;1.02;;;;;;;28.88;54.27;101181.06;5187250;28;20108;-76
2023/08/10 08:49:11;;;;;;;3.58;1.00;;;;;;;29.18;52.47;101164.50;5186697;28;20044;-74
2023/08/10 08:51:43;;;;;;;4.28;0.77;;;;;;;29.90;52.93;101164.03;5188327;28;20030;-76
2023/08/10 08:54:14;;;;;;;4.47;1.10;;;;;;;29.83;52.83;101171.06;5190879;28;20022;-73
2023/08/10 08:56:44;;;;;;;4.10;0.82;;;;;;;30.89;49.30;101164.72;5189623;28;20048;-76
2023/08/10 08:59:16;;;;;;;2.33;0.97;;;;;;;28.64;52.57;101171.13;5189403;28;20386;-75
2023/08/10 09:01:48;;;;;;;3.22;0.88;;;;;;;30.04;50.64;101166.09;5190441;28;20499;-76
2023/08/10 09:04:18;;;;;;;1.83;0.80;;;;;;;32.13;47.31;101155.72;5195195;28;20391;-73
2023/08/10 09:06:48;;;;;;;2.50;0.70;;;;;;;31.63;48.41;101166.09;5187929;28;20041;-72
2023/08/10 09:09:18;;;;;;;3.37;0.97;;;;;;;30.83;47.74;101166.22;5190464;28;20281;-73
2023/08/10 09:11:49;;;;;;;3.07;0.90;;;;;;;28.53;50.48;101168.66;5189875;28;20638;-73
2023/08/10 09:14:19;;;;;;;2.70;0.93;;;;;;;27.92;50.86;101173.88;5190972;28;20127;-75
2023/08/10 09:16:50;;;;;;;2.67;0.77;;;;;;;28.66;54.49;101172.63;5186283;28;20269;-76
2023/08/10 09:19:20;;;;;;;5.38;0.82;;;;;;;26.93;54.91;101175.44;5187680;28;20283;-73
2023/08/10 09:21:51;;;;;;;4.07;0.80;;;;;;;26.81;56.72;101173.06;5191157;28;20415;-75
2023/08/10 09:24:21;;;;;;;3.42;0.95;;;;;;;25.26;59.40;101183.69;5194757;28;20025;-75
2023/08/10 09:26:51;;;;;;;6.22;1.20;;;;;;;25.36;60.41;101173.03;5189329;28;20325;-76
2023/08/10 09:29:28;;;;;;;3.42;0.90;;;;;;;25.85;59.90;101175.78;5185259;28;20037;-75
2023/08/10 09:31:59;;;;;;;4.15;1.00;;;;;;;25.32;57.88;101167.09;5187979;28;20148;-75
2023/08/10 09:34:29;;;;;;;3.75;1.15;;;;;;;24.89;58.37;101170.88;5191390;28;20112;-75
2023/08/10 09:37:00;;;;;;;5.68;1.08;;;;;;;25.07;60.43;101174.66;5188310;28;20507;-76
2023/08/10 09:39:32;;;;;;;7.25;1.27;;;;;;;25.41;60.56;101165.44;5187533;28;20041;-75
2023/08/10 09:42:03;;;;;;;2.72;0.95;;;;;;;25.28;59.29;101154.97;5194538;28;20030;-75
2023/08/10 09:44:47;;;;;;;4.47;0.90;;;;;;;25.91;58.44;101156.47;5190307;28;20491;-75
2023/08/10 09:47:19;;;;;;;3.60;0.82;;;;;;;24.60;58.26;101167.19;5188872;28;20017;-75
2023/08/10 09:50:00;;;;;;;4.40;1.00;;;;;;;24.02;58.25;101164.91;5186571;28;20045;-74
2023/08/10 09:52:33;;;;;;;3.38;1.05;;;;;;;23.67;60.83;101180.22;5197473;28;20039;-75
2023/08/10 09:55:06;;;;;;;4.43;1.00;;;;;;;23.38;61.07;101176.34;5194690;28;20033;-75
2023/08/10 09:57:43;;;;;;;3.10;1.13;;;;;;;22.65;63.10;101181.28;5196083;28;20048;-74
2023/08/10 10:00:22;;;;;;;2.40;1.00;;;;;;;22.94;61.94;101175.41;5191738;28;20503;-76
2023/08/10 10:02:53;;;;;;;3.65;1.15;;;;;;;23.39;61.73;101174.53;5191897;28;20029;-75
2023/08/10 10:05:23;;;;;;;6.28;0.80;;;;;;;23.03;62.46;101178.22;5197708;28;20035;-75
2023/08/10 10:07:53;;;;;;;6.63;1.00;;;;;;;23.31;62.28;101176.94;5197004;28;20518;-74
2023/08/10 10:10:24;;;;;;;6.55;1.02;;;;;;;23.62;62.90;101182.44;5190113;28;20373;-75
2023/08/10 10:12:55;;;;;;;4.15;0.75;;;;;;;23.49;60.97;101187.03;5190783;28;20026;-75
2023/08/10 10:15:26;;;;;;;3.10;1.15;;;;;;;22.96;63.89;101186.81;5196484;28;20037;-75
2023/08/10 10:17:56;;;;;;;3.83;0.90;;;;;;;22.43;63.19;101191.84;5190411;28;20083;-74
2023/08/10 10:20:27;;;;;;;2.78;0.98;;;;;;;22.76;63.05;101180.34;5189610;28;20042;-75
2023/08/10 10:22:58;;;;;;;2.80;1.23;;;;;;;23.32;61.29;101178.66;5192577;28;20064;-77
2023/08/10 10:25:28;;;;;;;2.78;0.77;;;;;;;23.41;62.34;101177.94;5193766;28;20431;-74
2023/08/10 10:28:11;;;;;;;2.65;0.85;;;;;;;22.69;61.10;101176.44;5189230;28;20037;-74
2023/08/10 10:31:08;;;;;;;2.63;0.93;;;;;;;22.73;60.41;101173.56;5195089;28;20046;-73
2023/08/10 10:33:53;;;;;;;2.42;0.73;;;;;;;22.89;60.51;101165.13;5192457;28;20603;-74
2023/08/10 10:36:24;;;;;;;4.00;1.05;;;;;;;22.35;61.94;101160.41;5189582;28;20487;-72
2023/08/10 10:39:04;;;;;;;4.20;0.98;;;;;;;22.26;61.86;101157.59;5188984;28;20026;-74
2023/08/10 10:41:34;;;;;;;3.55;1.08;;;;;;;22.09;60.61;101160.66;5197106;28;20047;-74
2023/08/10 10:44:06;;;;;;;2.15;0.82;;;;;;;21.78;61.83;101174.50;5193166;28;20029;-74
2023/08/10 10:46:38;;;;;;;2.67;0.90;;;;;;;22.21;63.53;101163.25;5187577;28;20041;-74
2023/08/10 10:49:14;;;;;;;3.42;0.80;;;;;;;22.50;61.69;101167.31;5183759;28;20033;-73
2023/08/10 10:52:02;;;;;;;2.88;0.80;;;;;;;22.74;62.33;101152.97;5190474;28;20585;-76
2023/08/10 10:54:35;;;;;;;8.60;1.20;;;;;;;22.65;58.79;101143.97;5194298;28;20057;-76
2023/08/10 10:57:06;;;;;;;3.33;0.95;;;;;;;22.54;60.24;101151.91;5194658;28;20106;-75
2023/08/10 10:59:36;;;;;;;2.38;0.80;;;;;;;22.30;60.72;101161.72;5194127;28;20018;-74
2023/08/10 11:02:07;;;;;;;6.47;1.27;;;;;;;22.35;61.55;101151.56;5187631;28;20055;-72
2023/08/10 11:04:38;;;;;;;4.07;0.75;;;;;;;22.37;61.09;101146.97;5188196;28;20042;-74
2023/08/10 11:07:08;;;;;;;2.63;0.70;;;;;;;22.54;60.65;101162.56;5195157;28;20129;-70
2023/08/10 11:09:38;;;;;;;3.13;0.80;;;;;;;22.78;61.55;101145.56;5188156;28;20035;-74
2023/08/10 11:12:09;;;;;;;2.85;0.80;;;;;;;23.08;60.27;101143.19;5191462;28;20296;-72
2023/08/10 11:14:41;;;;;;;4.30;1.00;;;;;;;23.19;60.22;101138.75;5197443;28;20082;-75
2023/08/10 11:17:11;;;;;;;3.25;0.90;;;;;;;23.16;59.32;101149.66;5181449;28;20065;-72
2023/08/10 11:19:41;;;;;;;2.35;0.90;;;;;;;22.99;60.95;101150.09;5191299;28;20025;-77
2023/08/10 11:22:12;;;;;;;3.70;1.10;;;;;;;22.90;61.21;101155.28;5191196;28;20095;-74
2023/08/10 11:24:43;;;;;;;4.38;0.90;;;;;;;22.76;61.92;101148.38;5185824;28;20573;-77
2023/08/10 11:27:14;;;;;;;1.73;0.80;;;;;;;22.59;61.60;101149.78;5191276;28;20048;-76
2023/08/10 11:29:44;;;;;;;4.65;0.98;;;;;;;22.03;63.38;101145.97;5192799;28;20463;-74
2023/08/10 11:32:15;;;;;;;3.78;1.00;;;;;;;22.73;63.08;101138.91;5186489;28;20576;-74
2023/08/10 11:34:45;;;;;;;2.38;0.82;;;;;;;22.84;61.70;101139.78;5191324;28;20439;-70
2023/08/10 11:37:15;;;;;;;2.97;0.83;;;;;;;22.81;59.88;101132.84;5188318;28;20050;-74
2023/08/10 11:39:46;;;;;;;4.72;1.00;;;;;;;22.92;60.06;101132.03;5184923;28;20687;-73
2023/08/10 11:42:16;;;;;;;3.38;0.88;;;;;;;22.85;62.62;101128.97;5191186;28;20041;-74